Time;durP1;ratioP1;P1;durP2;ratioP2;P2;SDS_P1;SDS_P2;PMS_P1;PMS_P2;Temp;Humidity;BMP_temperature;BMP_pressure;BME280_temperature;BME280_humidity;BME280_pressure;Samples;Min_cycle;Max_cycle;Signal;HPM_P1;HPM_P2
2022/10/16 08:25:49;;;;;;;3.70;1.20;;;16.90;75.70;;;;;;4713677;30;20397;-77
2022/10/16 08:28:16;;;;;;;3.42;0.88;;;16.70;75.90;;;;;;4719963;30;20049;-77
2022/10/16 08:30:42;;;;;;;6.35;1.23;;;16.70;76.10;;;;;;4719078;30;20477;-77
2022/10/16 08:33:07;;;;;;;7.35;1.38;;;16.60;76.00;;;;;;4737814;30;20149;-78
2022/10/16 08:35:33;;;;;;;4.47;1.10;;;16.60;76.10;;;;;;4737409;30;20052;-76
2022/10/16 08:37:59;;;;;;;4.38;1.15;;;16.50;76.30;;;;;;4737194;30;20123;-77
2022/10/16 08:40:32;;;;;;;4.22;0.85;;;16.50;76.70;;;;;;4736908;30;20044;-78
2022/10/16 08:43:01;;;;;;;;;;;16.50;76.80;;;;;;4737797;30;20083;-79
2022/10/16 08:45:48;;;;;;;5.40;1.17;;;16.50;76.80;;;;;;4734404;30;19926;-77
2022/10/16 08:48:32;;;;;;;5.03;1.02;;;16.50;76.90;;;;;;4736410;30;20057;-78
2022/10/16 08:50:58;;;;;;;4.80;1.10;;;16.60;76.90;;;;;;4736334;30;20075;-78
2022/10/16 08:53:48;;;;;;;5.78;1.02;;;16.60;77.00;;;;;;4736925;30;20473;-76
2022/10/16 08:56:20;;;;;;;3.03;0.90;;;16.60;76.90;;;;;;4734710;30;20396;-80
2022/10/16 08:58:47;;;;;;;5.53;1.00;;;16.60;77.00;;;;;;4721123;30;20067;-79
2022/10/16 09:01:19;;;;;;;8.85;1.52;;;16.60;77.50;;;;;;4733366;30;20468;-78
2022/10/16 09:04:06;;;;;;;7.63;1.30;;;16.70;77.00;;;;;;4754605;30;20456;-75
2022/10/16 09:06:50;;;;;;;5.90;1.10;;;16.70;77.10;;;;;;4736109;30;20122;-79
2022/10/16 09:09:41;;;;;;;12.05;1.55;;;16.70;77.30;;;;;;4736935;30;20052;-86
2022/10/16 09:12:28;;;;;;;14.45;2.20;;;16.80;77.30;;;;;;4736067;30;20059;-78
2022/10/16 09:15:35;;;;;;;18.33;1.75;;;16.80;77.40;;;;;;4737182;30;20080;-82
2022/10/16 09:21:19;;;;;;;11.57;1.83;;;16.80;78.00;;;;;;4721017;30;20052;-80
2022/10/16 09:24:01;;;;;;;12.05;1.88;;;16.80;77.90;;;;;;4707167;30;20436;-82
2022/10/16 09:26:33;;;;;;;12.90;1.75;;;16.80;77.80;;;;;;4719195;30;20049;-76
2022/10/16 09:29:37;;;;;;;10.70;1.83;;;16.90;77.80;;;;;;4721198;30;20484;-81
2022/10/16 09:32:18;;;;;;;10.13;1.65;;;16.90;77.60;;;;;;4735625;30;20048;-78
2022/10/16 09:34:49;;;;;;;12.75;1.80;;;16.90;77.60;;;;;;4736752;30;20091;-77
2022/10/16 09:37:19;;;;;;;8.15;1.90;;;16.90;77.70;;;;;;4706514;30;20131;-77
2022/10/16 09:39:52;;;;;;;12.57;2.00;;;16.90;77.90;;;;;;4736653;30;20068;-78
2022/10/16 09:42:44;;;;;;;10.13;1.98;;;16.90;78.00;;;;;;4735626;30;20070;-76
2022/10/16 09:45:22;;;;;;;10.90;2.03;;;16.90;78.10;;;;;;4733371;30;20072;-78
2022/10/16 09:47:48;;;;;;;12.82;1.92;;;16.90;78.30;;;;;;4736453;30;20060;-78
2022/10/16 09:50:35;;;;;;;4.75;1.20;;;17.00;78.40;;;;;;4736462;30;20503;-78
2022/10/16 09:53:22;;;;;;;7.85;1.77;;;17.00;78.50;;;;;;4736701;30;20077;-77
2022/10/16 09:55:52;;;;;;;9.45;1.80;;;17.00;78.60;;;;;;4735452;30;20049;-76
2022/10/16 09:58:21;;;;;;;11.93;1.75;;;17.00;78.70;;;;;;4736120;30;20503;-77
2022/10/16 10:00:53;;;;;;;5.85;1.30;;;17.00;78.70;;;;;;4736068;30;20049;-77
2022/10/16 10:03:40;;;;;;;6.40;1.63;;;17.10;78.80;;;;;;4720368;30;20056;-78
2022/10/16 10:06:41;;;;;;;9.02;1.83;;;17.00;78.70;;;;;;4721231;30;20057;-80
2022/10/16 10:09:31;;;;;;;9.27;1.40;;;17.10;78.90;;;;;;4723884;30;20140;-80
2022/10/16 10:12:02;;;;;;;11.55;2.60;;;17.10;78.80;;;;;;4716223;30;20160;-76
2022/10/16 10:14:46;;;;;;;13.73;2.50;;;17.00;77.10;;;;;;4757040;30;20106;-79
2022/10/16 10:17:11;;;;;;;;;;;17.00;76.40;;;;;;4742802;30;20049;-78
2022/10/16 10:19:49;;;;;;;17.90;2.33;;;17.00;76.50;;;;;;4740311;30;20061;-78
2022/10/16 10:22:28;;;;;;;8.68;1.92;;;17.00;75.80;;;;;;4738175;30;20131;-77
2022/10/16 10:25:06;;;;;;;13.30;2.95;;;17.00;74.60;;;;;;4737764;30;20137;-78
2022/10/16 10:27:39;;;;;;;16.73;2.45;;;17.00;73.60;;;;;;4738084;30;20056;-79
2022/10/16 10:30:33;;;;;;;15.35;3.00;;;16.90;74.00;;;;;;4739414;30;20136;-77
2022/10/16 10:33:17;;;;;;;14.48;2.00;;;17.00;74.30;;;;;;4739359;30;20130;-77
2022/10/16 10:36:12;;;;;;;17.45;3.75;;;16.90;74.50;;;;;;4709705;30;20064;-77
2022/10/16 10:38:47;;;;;;;16.50;3.25;;;17.00;74.40;;;;;;4723716;30;20059;-74
2022/10/16 10:41:34;;;;;;;16.38;3.22;;;17.00;74.10;;;;;;4739327;30;20106;-78
2022/10/16 10:44:03;;;;;;;15.40;2.70;;;17.00;74.10;;;;;;4739587;30;20059;-77
2022/10/16 10:46:35;;;;;;;13.88;2.67;;;17.00;74.40;;;;;;4739574;30;20106;-77
2022/10/16 10:49:22;;;;;;;15.02;2.63;;;17.00;74.50;;;;;;4738436;30;20065;-77
2022/10/16 10:52:25;;;;;;;15.40;2.90;;;17.00;74.70;;;;;;4739782;30;20131;-76
2022/10/16 10:55:13;;;;;;;11.63;2.38;;;17.00;74.90;;;;;;4740104;30;20350;-77
2022/10/16 10:57:50;;;;;;;15.32;2.63;;;17.00;75.10;;;;;;4740212;30;20121;-77
2022/10/16 11:00:35;;;;;;;10.45;2.60;;;17.00;75.20;;;;;;4739235;30;20140;-78
2022/10/16 11:03:39;;;;;;;12.95;2.70;;;17.10;75.30;;;;;;4739226;30;20121;-77
2022/10/16 11:06:24;;;;;;;13.10;2.58;;;17.00;75.30;;;;;;4712334;30;20473;-77
2022/10/16 11:09:24;;;;;;;8.40;1.95;;;17.00;75.30;;;;;;4739205;30;20095;-77
2022/10/16 11:11:58;;;;;;;10.77;2.40;;;17.00;75.40;;;;;;4718416;30;20512;-77
2022/10/16 11:14:36;;;;;;;12.13;2.65;;;17.00;75.40;;;;;;4720441;30;20119;-77
2022/10/16 11:17:09;;;;;;;11.13;2.45;;;17.10;75.50;;;;;;4721612;30;20057;-77
2022/10/16 11:19:50;;;;;;;12.95;2.17;;;17.10;75.60;;;;;;4725319;30;20048;-77
2022/10/16 11:22:22;;;;;;;9.07;2.03;;;17.10;75.60;;;;;;4739078;30;20057;-77
2022/10/16 11:25:19;;;;;;;6.93;2.13;;;17.10;75.60;;;;;;4738507;30;20474;-77
2022/10/16 11:27:58;;;;;;;13.07;2.75;;;17.10;75.60;;;;;;4723572;30;20060;-77
2022/10/16 11:30:30;;;;;;;8.25;1.73;;;17.10;75.60;;;;;;4723248;30;20068;-78
2022/10/16 11:33:08;;;;;;;10.30;2.35;;;17.10;75.70;;;;;;4738981;30;20057;-77
2022/10/16 11:35:59;;;;;;;7.28;2.03;;;17.10;75.60;;;;;;4737765;30;20053;-77
2022/10/16 11:39:01;;;;;;;6.88;1.60;;;17.10;75.70;;;;;;4738761;30;20107;-77
2022/10/16 11:41:34;;;;;;;8.68;2.03;;;17.10;75.70;;;;;;4705496;30;20064;-77
2022/10/16 11:44:37;;;;;;;7.88;1.50;;;17.10;75.70;;;;;;4719868;30;20053;-77
2022/10/16 11:47:30;;;;;;;6.53;1.92;;;17.10;75.70;;;;;;4720653;30;20432;-78
2022/10/16 11:50:01;;;;;;;11.98;1.65;;;17.10;75.80;;;;;;4727469;30;20049;-77
2022/10/16 11:52:51;;;;;;;6.28;1.27;;;17.10;76.40;;;;;;4738713;30;20056;-77
2022/10/16 11:55:19;;;;;;;5.82;1.48;;;17.10;75.90;;;;;;4738671;30;20056;-77
2022/10/16 11:58:02;;;;;;;13.52;2.40;;;17.10;75.90;;;;;;4708660;30;20067;-77
2022/10/16 12:00:33;;;;;;;7.45;1.85;;;17.10;75.90;;;;;;4722596;30;20056;-77
2022/10/16 12:03:33;;;;;;;6.97;1.75;;;17.10;76.00;;;;;;4722280;30;20076;-77
2022/10/16 12:06:20;;;;;;;6.88;1.33;;;17.10;75.80;;;;;;4708540;30;20049;-76
2022/10/16 12:08:47;;;;;;;6.68;1.15;;;17.10;75.90;;;;;;4722179;30;20048;-78
2022/10/16 12:11:28;;;;;;;8.38;1.48;;;17.10;75.90;;;;;;4737763;30;20434;-77
2022/10/16 12:14:06;;;;;;;5.95;1.67;;;17.00;75.90;;;;;;4738383;30;20092;-77
2022/10/16 12:16:31;;;;;;;4.50;0.95;;;17.10;75.90;;;;;;4738087;30;20052;-77
2022/10/16 12:19:17;;;;;;;4.93;1.27;;;17.10;76.00;;;;;;4737416;30;20461;-77
2022/10/16 12:21:44;;;;;;;13.05;2.17;;;17.10;75.90;;;;;;4736559;30;20472;-77
2022/10/16 12:24:42;;;;;;;8.63;2.13;;;17.10;76.00;;;;;;4693828;30;20068;-78
2022/10/16 12:27:30;;;;;;;5.18;1.85;;;17.20;76.00;;;;;;4694789;30;20061;-77
2022/10/16 12:30:05;;;;;;;6.82;1.20;;;17.10;76.00;;;;;;4703087;30;20425;-77
2022/10/16 12:32:39;;;;;;;6.70;1.08;;;17.10;76.00;;;;;;4704696;30;20052;-77
2022/10/16 12:35:36;;;;;;;7.05;1.88;;;17.10;76.00;;;;;;4705342;30;20136;-78
2022/10/16 12:38:20;;;;;;;5.18;1.52;;;17.10;76.00;;;;;;4704118;30;20076;-78
2022/10/16 12:40:56;;;;;;;6.60;1.00;;;17.10;76.00;;;;;;4719098;30;20053;-78
2022/10/16 12:43:21;;;;;;;5.30;1.65;;;17.10;76.00;;;;;;4704927;30;20471;-77
2022/10/16 12:46:03;;;;;;;7.60;1.42;;;17.10;76.00;;;;;;4705122;30;20100;-77
2022/10/16 12:48:30;;;;;;;5.05;1.23;;;17.10;76.00;;;;;;4704668;30;20090;-77
2022/10/16 12:50:56;;;;;;;7.32;1.67;;;17.10;76.00;;;;;;4719608;30;20118;-77
2022/10/16 12:53:26;;;;;;;3.50;1.02;;;17.10;76.10;;;;;;4719831;30;20048;-77
2022/10/16 12:56:04;;;;;;;5.10;1.00;;;17.20;76.10;;;;;;4690177;30;20523;-78
2022/10/16 12:58:48;;;;;;;5.97;1.75;;;17.20;76.10;;;;;;4719191;30;20053;-77
2022/10/16 13:01:46;;;;;;;3.85;1.10;;;17.20;76.10;;;;;;4704120;30;20084;-77
2022/10/16 13:04:11;;;;;;;4.60;1.20;;;17.20;76.10;;;;;;4718831;30;20045;-77
2022/10/16 13:06:43;;;;;;;6.45;1.30;;;17.20;76.10;;;;;;4720517;30;20110;-77
2022/10/16 13:09:27;;;;;;;5.55;1.38;;;17.20;76.10;;;;;;4718904;30;20470;-77
2022/10/16 13:11:56;;;;;;;8.10;1.60;;;17.20;76.10;;;;;;4704054;30;20045;-77
2022/10/16 13:14:21;;;;;;;5.70;1.05;;;17.20;76.10;;;;;;4719439;30;20458;-77
2022/10/16 13:17:17;;;;;;;4.70;1.25;;;17.20;76.10;;;;;;4704248;30;20144;-76
2022/10/16 13:19:48;;;;;;;3.85;1.10;;;17.20;76.10;;;;;;4719485;30;20048;-78
2022/10/16 13:22:26;;;;;;;5.85;1.85;;;17.20;76.10;;;;;;4719219;30;20053;-77
2022/10/16 13:25:17;;;;;;;4.47;1.10;;;17.20;76.10;;;;;;4709053;30;20064;-77
2022/10/16 13:27:52;;;;;;;3.25;1.23;;;17.20;76.10;;;;;;4721978;30;20060;-77
2022/10/16 13:30:28;;;;;;;3.42;0.77;;;17.20;76.10;;;;;;4707372;30;20427;-78
2022/10/16 13:33:15;;;;;;;5.50;1.00;;;17.20;76.20;;;;;;4721619;30;20083;-78
2022/10/16 13:35:50;;;;;;;5.22;0.98;;;17.20;76.20;;;;;;4735358;30;20143;-78
2022/10/16 13:38:21;;;;;;;7.40;1.08;;;17.20;76.30;;;;;;4736768;30;20053;-77
2022/10/16 13:41:02;;;;;;;4.35;1.13;;;17.20;76.20;;;;;;4721071;30;20053;-78
2022/10/16 13:43:52;;;;;;;3.60;0.90;;;17.20;76.20;;;;;;4734997;30;20048;-77
2022/10/16 13:46:23;;;;;;;4.95;0.93;;;17.20;76.20;;;;;;4736992;30;20052;-78
2022/10/16 13:49:16;;;;;;;2.72;0.60;;;17.20;76.30;;;;;;4721760;30;20044;-77
2022/10/16 13:51:53;;;;;;;3.08;0.90;;;17.30;76.30;;;;;;4706837;30;20135;-77
2022/10/16 13:54:18;;;;;;;3.83;1.10;;;17.20;76.30;;;;;;4706782;30;20063;-77
2022/10/16 13:56:44;;;;;;;4.47;1.35;;;17.20;76.30;;;;;;4721084;30;20432;-77
2022/10/16 13:59:32;;;;;;;2.75;0.98;;;17.20;76.30;;;;;;4706841;30;20056;-77
2022/10/16 14:01:59;;;;;;;3.67;1.00;;;17.30;76.30;;;;;;4706604;30;20044;-77
2022/10/16 14:04:30;;;;;;;5.22;1.77;;;17.20;76.30;;;;;;4736730;30;20053;-77
2022/10/16 14:06:56;;;;;;;4.85;1.00;;;17.30;76.40;;;;;;4720965;30;20120;-77
2022/10/16 14:09:26;;;;;;;4.03;0.80;;;17.20;76.30;;;;;;4736609;30;20120;-77
2022/10/16 14:11:56;;;;;;;5.22;1.50;;;17.30;76.30;;;;;;4735236;30;20048;-77
2022/10/16 14:14:23;;;;;;;3.22;0.80;;;17.30;76.30;;;;;;4721316;30;20064;-78
2022/10/16 14:16:49;;;;;;;3.20;0.70;;;17.20;76.20;;;;;;4735399;30;20124;-77
2022/10/16 14:19:27;;;;;;;4.35;1.58;;;17.30;76.30;;;;;;4720918;30;20056;-77
2022/10/16 14:21:53;;;;;;;5.68;0.98;;;17.30;76.20;;;;;;4720605;30;20053;-77
2022/10/16 14:24:29;;;;;;;5.57;0.85;;;17.30;76.30;;;;;;4735831;30;20118;-77
2022/10/16 14:26:56;;;;;;;3.38;0.95;;;17.30;76.20;;;;;;4707323;30;20139;-78
2022/10/16 14:29:23;;;;;;;5.47;1.00;;;17.30;76.30;;;;;;4706587;30;20471;-77
2022/10/16 14:31:56;;;;;;;4.10;1.13;;;17.30;76.20;;;;;;4720730;30;20071;-77
2022/10/16 14:34:40;;;;;;;4.60;0.65;;;17.30;76.30;;;;;;4720583;30;20135;-76
2022/10/16 14:37:21;;;;;;;4.45;0.82;;;17.30;76.20;;;;;;4735415;30;20075;-76
2022/10/16 14:39:53;;;;;;;4.35;0.90;;;17.30;76.30;;;;;;4721085;30;20440;-77
2022/10/16 14:42:24;;;;;;;3.22;0.85;;;17.30;76.20;;;;;;4736016;30;20150;-76
2022/10/16 14:44:54;;;;;;;3.65;0.73;;;17.30;76.30;;;;;;4736457;30;20053;-76
2022/10/16 14:47:26;;;;;;;3.13;1.00;;;17.30;76.40;;;;;;4721283;30;20534;-77
2022/10/16 14:49:55;;;;;;;4.07;1.08;;;17.30;76.30;;;;;;4721007;30;20053;-77
2022/10/16 14:52:21;;;;;;;3.20;0.65;;;17.30;76.40;;;;;;4735871;30;20048;-78
2022/10/16 14:54:54;;;;;;;3.05;0.77;;;17.30;76.40;;;;;;4723765;30;20060;-77
2022/10/16 14:57:23;;;;;;;3.93;0.80;;;17.30;76.50;;;;;;4710236;30;20099;-77
2022/10/16 14:59:53;;;;;;;1.90;0.50;;;17.30;76.60;;;;;;4723704;30;20056;-77
2022/10/16 15:02:33;;;;;;;4.10;0.85;;;17.30;76.60;;;;;;4738236;30;20075;-78
2022/10/16 15:05:21;;;;;;;3.88;1.13;;;17.30;76.60;;;;;;4724013;30;20092;-77
2022/10/16 15:07:48;;;;;;;3.50;0.93;;;17.30;76.70;;;;;;4710066;30;20127;-77
2022/10/16 15:10:16;;;;;;;2.88;0.82;;;17.20;76.70;;;;;;4739153;30;20040;-77
2022/10/16 15:12:41;;;;;;;1.90;0.60;;;17.20;76.70;;;;;;4709188;30;20056;-78
2022/10/16 15:15:22;;;;;;;2.75;0.93;;;17.20;76.70;;;;;;4739018;30;20056;-78
2022/10/16 15:17:52;;;;;;;2.85;0.77;;;17.20;76.70;;;;;;4738125;30;20048;-77
2022/10/16 15:20:18;;;;;;;2.97;0.75;;;17.20;76.70;;;;;;4738121;30;20118;-77
2022/10/16 15:22:44;;;;;;;3.25;1.05;;;17.20;76.70;;;;;;4730403;30;20125;-78
2022/10/16 15:25:32;;;;;;;3.10;1.02;;;17.30;76.80;;;;;;4738720;30;20180;-77
2022/10/16 15:27:59;;;;;;;3.92;0.80;;;17.20;76.70;;;;;;4732024;30;20053;-77
2022/10/16 15:30:25;;;;;;;4.20;0.70;;;17.20;76.80;;;;;;4723382;30;20080;-77
2022/10/16 15:32:51;;;;;;;4.55;1.02;;;17.20;76.80;;;;;;4708534;30;20060;-76
2022/10/16 15:35:17;;;;;;;3.35;1.05;;;17.20;77.40;;;;;;4739118;30;20357;-78
2022/10/16 15:37:43;;;;;;;2.25;0.50;;;17.20;76.80;;;;;;4723529;30;20064;-77
2022/10/16 15:40:10;;;;;;;3.42;0.80;;;17.20;76.80;;;;;;4723553;30;20129;-78
2022/10/16 15:42:36;;;;;;;2.00;0.40;;;17.20;76.80;;;;;;4722574;30;20122;-78
2022/10/16 15:45:03;;;;;;;4.47;1.05;;;17.20;76.80;;;;;;4738812;30;20045;-78
2022/10/16 15:47:28;;;;;;;2.28;0.70;;;17.20;76.80;;;;;;4723250;30;20059;-78
2022/10/16 15:49:54;;;;;;;4.32;0.95;;;17.20;76.80;;;;;;4723065;30;20040;-78
2022/10/16 15:52:20;;;;;;;3.38;0.50;;;17.20;76.80;;;;;;4719662;30;20053;-78
2022/10/16 15:54:45;;;;;;;3.35;0.90;;;17.20;76.80;;;;;;4721039;30;20045;-78
2022/10/16 15:57:11;;;;;;;4.47;0.63;;;17.20;76.80;;;;;;4720186;30;20080;-77
2022/10/16 15:59:37;;;;;;;3.00;0.57;;;17.20;76.80;;;;;;4721145;30;20060;-78
2022/10/16 16:02:02;;;;;;;2.45;0.90;;;17.20;76.80;;;;;;4715254;30;20072;-77
2022/10/16 16:04:31;;;;;;;3.78;0.80;;;17.20;76.80;;;;;;4708338;30;20390;-78
2022/10/16 16:06:57;;;;;;;3.60;0.90;;;17.20;76.90;;;;;;4738023;30;20061;-78
2022/10/16 16:09:23;;;;;;;3.65;0.65;;;17.20;76.80;;;;;;4738206;30;20117;-77
2022/10/16 16:11:51;;;;;;;2.35;0.73;;;17.20;76.80;;;;;;4736641;30;20496;-78
2022/10/16 16:14:16;;;;;;;4.15;0.65;;;17.20;76.80;;;;;;4738320;30;20052;-78
2022/10/16 16:16:42;;;;;;;3.47;1.30;;;17.20;76.80;;;;;;4722692;30;20045;-77
2022/10/16 16:19:09;;;;;;;2.88;0.60;;;17.20;76.80;;;;;;4722489;30;20048;-78
2022/10/16 16:21:34;;;;;;;3.05;0.93;;;17.20;76.70;;;;;;4737742;30;20045;-78
2022/10/16 16:24:00;;;;;;;3.40;0.88;;;17.20;76.70;;;;;;4736794;30;20067;-78
2022/10/16 16:26:27;;;;;;;3.45;0.63;;;17.20;76.70;;;;;;4736828;30;20155;-78
2022/10/16 16:28:54;;;;;;;4.05;0.90;;;17.20;76.70;;;;;;4736616;30;20115;-78
2022/10/16 16:31:23;;;;;;;4.35;0.68;;;17.20;76.70;;;;;;4722489;30;20056;-77
2022/10/16 16:33:51;;;;;;;2.47;0.80;;;17.20;76.70;;;;;;4737886;30;20052;-78
2022/10/16 16:36:17;;;;;;;3.00;0.98;;;17.10;76.60;;;;;;4722985;30;20488;-78
2022/10/16 16:38:44;;;;;;;3.35;0.73;;;17.20;76.60;;;;;;4737714;30;20049;-78
2022/10/16 16:41:16;;;;;;;3.58;0.60;;;17.10;76.50;;;;;;4736550;30;20048;-78
2022/10/16 16:43:47;;;;;;;6.32;0.80;;;17.10;76.40;;;;;;4707234;30;20056;-77
2022/10/16 16:46:16;;;;;;;5.13;0.90;;;17.20;76.40;;;;;;4737383;30;20118;-77
2022/10/16 16:48:42;;;;;;;4.80;1.00;;;17.10;76.40;;;;;;4707563;30;20048;-77
2022/10/16 16:51:20;;;;;;;8.10;1.98;;;17.10;76.60;;;;;;4737682;30;20465;-78
2022/10/16 16:53:48;;;;;;;10.73;2.20;;;17.10;76.60;;;;;;4737089;30;20045;-78
2022/10/16 16:56:14;;;;;;;11.18;2.00;;;17.20;76.60;;;;;;4737461;30;20062;-78
2022/10/16 16:58:40;;;;;;;14.98;2.80;;;17.20;76.50;;;;;;4736823;30;20052;-78
2022/10/16 17:01:09;;;;;;;17.25;3.35;;;17.10;76.30;;;;;;4737227;30;20037;-78
2022/10/16 17:03:35;;;;;;;20.08;2.92;;;17.10;76.30;;;;;;4737175;30;20416;-78
2022/10/16 17:06:05;;;;;;;19.35;2.90;;;17.10;76.40;;;;;;4737233;30;20493;-79
2022/10/16 17:09:03;;;;;;;9.93;2.85;;;17.10;76.40;;;;;;4735686;30;20500;-78
2022/10/16 17:15:30;;;;;;;22.55;2.90;;;17.10;76.00;;;;;;4687018;30;20053;-78
2022/10/16 17:30:45;;;;;;;12.90;2.40;;;17.10;76.20;;;;;;4622486;30;20062;-78
2022/10/16 17:33:41;;;;;;;16.85;3.05;;;17.20;76.30;;;;;;4565543;31;20478;-79
2022/10/16 17:36:07;;;;;;;12.23;2.45;;;17.20;76.50;;;;;;4583592;30;20485;-79
2022/10/16 17:38:44;;;;;;;16.10;2.58;;;17.20;76.60;;;;;;4717698;30;20078;-78
2022/10/16 17:41:26;;;;;;;15.07;2.88;;;17.20;76.70;;;;;;4721695;30;20105;-78
2022/10/16 17:43:52;;;;;;;17.85;2.58;;;17.20;76.70;;;;;;4705618;30;20376;-77
2022/10/16 17:46:19;;;;;;;16.88;2.33;;;17.20;76.80;;;;;;4736781;30;20040;-77
2022/10/16 17:48:48;;;;;;;17.40;2.85;;;17.20;76.90;;;;;;4735226;30;20059;-77
2022/10/16 17:51:18;;;;;;;13.93;2.30;;;17.30;76.90;;;;;;4736939;30;20061;-77
2022/10/16 17:53:50;;;;;;;11.80;2.03;;;17.20;76.90;;;;;;4735716;30;20166;-78
2022/10/16 17:56:16;;;;;;;14.15;2.85;;;17.20;76.90;;;;;;4736921;30;20061;-78
2022/10/16 17:58:43;;;;;;;10.75;2.38;;;17.20;76.90;;;;;;4735584;30;20506;-78
2022/10/16 18:01:32;;;;;;;14.57;2.47;;;17.20;76.70;;;;;;4736210;30;20352;-80
2022/10/16 18:04:03;;;;;;;8.60;2.30;;;17.20;76.60;;;;;;4716528;30;20373;-77
2022/10/16 18:06:31;;;;;;;8.98;1.90;;;17.20;76.60;;;;;;4703139;30;20508;-79
2022/10/16 18:08:57;;;;;;;10.90;2.05;;;17.20;76.60;;;;;;4719007;30;20084;-78
2022/10/16 18:11:24;;;;;;;11.00;2.30;;;17.20;76.60;;;;;;4719821;30;20064;-77
2022/10/16 18:13:58;;;;;;;10.85;2.60;;;17.20;76.60;;;;;;4736519;30;20072;-77
2022/10/16 18:16:24;;;;;;;;;;;17.30;76.60;;;;;;4736979;30;20061;-78
2022/10/16 18:18:50;;;;;;;8.65;2.08;;;17.20;76.50;;;;;;4736509;30;19932;-78
2022/10/16 18:21:18;;;;;;;11.13;2.08;;;17.20;76.60;;;;;;4735954;30;20052;-78
2022/10/16 18:23:44;;;;;;;6.97;1.50;;;17.20;76.50;;;;;;4720636;30;20059;-77
2022/10/16 18:26:11;;;;;;;10.05;2.28;;;17.20;76.40;;;;;;4735295;30;20481;-77
2022/10/16 18:28:37;;;;;;;9.35;2.60;;;17.20;76.30;;;;;;4737953;30;20102;-77
2022/10/16 18:31:11;;;;;;;7.22;1.80;;;17.20;76.40;;;;;;4738312;30;20493;-79
2022/10/16 18:33:37;;;;;;;6.93;2.33;;;17.20;76.50;;;;;;4739455;30;20059;-76
2022/10/16 18:36:08;;;;;;;9.68;2.13;;;17.20;76.50;;;;;;4736547;30;20083;-78
2022/10/16 18:38:35;;;;;;;8.50;2.28;;;17.20;76.40;;;;;;4740002;30;20056;-76
2022/10/16 18:41:04;;;;;;;7.30;2.08;;;17.20;76.50;;;;;;4739890;30;20076;-76
2022/10/16 18:43:30;;;;;;;7.47;2.10;;;17.20;76.50;;;;;;4739602;30;20127;-77
2022/10/16 18:46:06;;;;;;;8.70;1.65;;;17.30;76.50;;;;;;4738788;30;20474;-77
2022/10/16 18:48:32;;;;;;;11.82;3.10;;;17.30;76.50;;;;;;4739602;30;20048;-77
2022/10/16 18:51:23;;;;;;;9.18;2.03;;;17.30;76.50;;;;;;4738828;30;20461;-78
2022/10/16 18:53:52;;;;;;;6.28;2.15;;;17.30;76.30;;;;;;4739142;30;20114;-77
2022/10/16 18:56:19;;;;;;;7.25;1.75;;;17.20;76.30;;;;;;4739185;30;20092;-78
2022/10/16 18:58:49;;;;;;;8.63;2.33;;;17.20;76.40;;;;;;4738656;30;20428;-77
2022/10/16 19:01:20;;;;;;;7.78;2.00;;;17.20;76.40;;;;;;4739516;30;20140;-77
2022/10/16 19:03:47;;;;;;;6.05;1.73;;;17.20;76.30;;;;;;4738506;30;20053;-78
2022/10/16 19:06:15;;;;;;;8.50;1.67;;;17.20;76.40;;;;;;4739058;30;20112;-78
2022/10/16 19:08:41;;;;;;;7.10;1.90;;;17.20;76.50;;;;;;4734394;30;20115;-77
2022/10/16 19:15:09;;;;;;;8.45;2.53;;;17.20;74.90;;;;;;4636343;30;20070;-75
2022/10/16 19:17:36;;;;;;;9.55;2.70;;;17.10;73.10;;;;;;4682965;30;20061;-78
2022/10/16 19:20:06;;;;;;;8.60;2.50;;;17.00;72.30;;;;;;4722126;30;20346;-80
2022/10/16 19:22:52;;;;;;;10.80;2.58;;;16.90;72.00;;;;;;4738213;30;20051;-78
2022/10/16 19:25:22;;;;;;;9.80;2.63;;;16.70;72.00;;;;;;4738933;30;20057;-81
2022/10/16 19:27:49;;;;;;;8.38;2.88;;;16.60;72.30;;;;;;4708650;30;20123;-77
2022/10/16 19:30:18;;;;;;;11.65;3.40;;;16.50;72.50;;;;;;4723103;30;20068;-82
2022/10/16 19:32:48;;;;;;;13.10;3.83;;;16.30;72.50;;;;;;4737625;30;20603;-78
2022/10/16 19:35:15;;;;;;;10.85;5.72;;;16.30;72.70;;;;;;4738767;30;20184;-81
2022/10/16 19:37:40;;;;;;;11.73;5.88;;;16.20;72.70;;;;;;4738128;30;20048;-80
2022/10/16 19:40:07;;;;;;;10.80;4.53;;;16.10;72.50;;;;;;4722379;30;20524;-76
2022/10/16 19:42:32;;;;;;;9.95;4.93;;;16.10;72.60;;;;;;4738461;30;20044;-78
2022/10/16 19:44:58;;;;;;;10.18;4.57;;;16.00;72.70;;;;;;4737486;30;20063;-78
2022/10/16 19:47:31;;;;;;;16.08;7.35;;;15.90;72.80;;;;;;4738798;30;20421;-80
2022/10/16 19:49:56;;;;;;;13.90;6.20;;;15.90;73.00;;;;;;4738478;30;20136;-76
2022/10/16 19:52:22;;;;;;;15.13;5.95;;;15.90;73.50;;;;;;4750411;30;20155;-77
2022/10/16 19:54:48;;;;;;;10.25;6.55;;;15.90;73.90;;;;;;4756763;30;20056;-78
2022/10/16 19:57:14;;;;;;;15.73;7.28;;;15.90;74.10;;;;;;4755059;30;20090;-77
2022/10/16 19:59:42;;;;;;;15.30;8.93;;;15.80;74.10;;;;;;4755838;30;20418;-77
2022/10/16 20:02:09;;;;;;;13.35;7.13;;;15.90;74.00;;;;;;4736885;30;20084;-76
2022/10/16 20:04:34;;;;;;;10.38;7.13;;;15.90;73.90;;;;;;4740088;30;20091;-77
2022/10/16 20:07:00;;;;;;;18.00;7.72;;;15.90;74.20;;;;;;4754109;30;20079;-76
2022/10/16 20:09:26;;;;;;;15.32;7.57;;;15.90;74.40;;;;;;4740111;30;20052;-77
2022/10/16 20:11:51;;;;;;;11.63;6.85;;;15.90;74.50;;;;;;4738300;30;20061;-75
2022/10/16 20:14:17;;;;;;;10.25;6.82;;;16.00;74.70;;;;;;4738489;30;20523;-77
2022/10/16 20:16:43;;;;;;;13.07;6.60;;;16.00;74.70;;;;;;4738846;30;20088;-77
2022/10/16 20:19:09;;;;;;;15.88;7.38;;;16.10;74.80;;;;;;4739023;30;20044;-74
2022/10/16 20:21:34;;;;;;;11.32;6.80;;;16.10;74.80;;;;;;4747003;30;20461;-75
2022/10/16 20:24:03;;;;;;;13.80;7.03;;;16.20;74.90;;;;;;4738088;30;20442;-76
2022/10/16 20:26:29;;;;;;;12.95;6.35;;;16.20;74.90;;;;;;4737991;30;20067;-76
2022/10/16 20:28:55;;;;;;;11.48;5.68;;;16.20;74.90;;;;;;4737808;30;20060;-75
2022/10/16 20:31:29;;;;;;;10.38;5.68;;;16.30;74.90;;;;;;4737507;30;20064;-75
2022/10/16 20:33:56;;;;;;;7.13;5.30;;;16.40;74.90;;;;;;4722641;30;20060;-74
2022/10/16 20:36:23;;;;;;;9.75;5.80;;;16.30;74.80;;;;;;4737912;30;20060;-75
2022/10/16 20:38:50;;;;;;;11.18;5.30;;;16.40;74.90;;;;;;4737603;30;20389;-73
2022/10/16 20:41:17;;;;;;;11.70;5.85;;;16.40;74.90;;;;;;4737660;30;20056;-75
2022/10/16 20:43:45;;;;;;;9.20;4.90;;;16.40;74.90;;;;;;4737408;30;20582;-76
2022/10/16 20:46:13;;;;;;;7.32;2.90;;;16.40;75.00;;;;;;4737749;30;20064;-77
2022/10/16 20:48:42;;;;;;;10.15;3.67;;;16.50;74.80;;;;;;4736518;30;20064;-77
2022/10/16 20:51:20;;;;;;;9.20;3.10;;;16.50;74.40;;;;;;4737803;30;20065;-75
2022/10/16 20:53:47;;;;;;;8.65;2.80;;;16.50;74.00;;;;;;4737194;30;20138;-78
2022/10/16 20:56:16;;;;;;;8.90;2.75;;;16.50;73.60;;;;;;4727709;30;20063;-77
2022/10/16 20:58:43;;;;;;;8.40;2.95;;;16.50;73.20;;;;;;4733821;30;20053;-77
2022/10/16 21:01:20;;;;;;;8.75;2.60;;;16.50;72.30;;;;;;4736955;30;20495;-76
2022/10/16 21:03:57;;;;;;;9.07;2.78;;;16.40;71.80;;;;;;4721785;30;20059;-76
